createdAt,value
2018-09-29T00:04:01.176Z,29.6
2018-09-29T00:08:57.367Z,29.7
2018-09-29T00:13:53.555Z,29.7
2018-09-29T00:18:49.683Z,30
2018-09-29T00:23:46.401Z,30.2
2018-09-29T00:28:42.866Z,30.4
2018-09-29T00:33:38.652Z,30.4
2018-09-29T00:38:34.469Z,30.5
2018-09-29T00:43:30.681Z,30.4
2018-09-29T00:48:26.857Z,30.6
2018-09-29T00:53:22.823Z,30.7
2018-09-29T00:58:19.233Z,30.6
2018-09-29T01:03:15.596Z,30.8
2018-09-29T01:08:12.487Z,31.1
2018-09-29T01:13:08.638Z,31.1
2018-09-29T01:18:04.777Z,31.3
2018-09-29T01:23:00.955Z,31.5
2018-09-29T01:27:57.293Z,32.1
2018-09-29T01:32:52.900Z,32.2
2018-09-29T01:37:48.984Z,32.4
2018-09-29T01:42:45.129Z,32.4
2018-09-29T01:47:40.986Z,32.4
2018-09-29T01:52:37.528Z,32.6
2018-09-29T01:57:33.574Z,32.9
2018-09-29T02:02:29.540Z,32.7
2018-09-29T02:07:25.720Z,32.7
2018-09-29T02:12:22.135Z,32.9
2018-09-29T02:17:18.028Z,32.6
2018-09-29T02:22:14.216Z,32.8
2018-09-29T02:27:10.215Z,33
2018-09-29T02:32:06.687Z,33.1
2018-09-29T02:37:02.923Z,33.4
2018-09-29T02:41:59.065Z,33.5
2018-09-29T02:46:55.065Z,33.6
2018-09-29T02:51:51.171Z,33.6
2018-09-29T02:56:47.645Z,34
2018-09-29T03:01:43.972Z,34
2018-09-29T03:06:40.261Z,34.4
2018-09-29T03:11:36.524Z,34.6
2018-09-29T03:16:32.308Z,34.3
2018-09-29T03:21:28.381Z,34.7
2018-09-29T03:26:23.818Z,34.6
2018-09-29T03:31:20.119Z,34.7
2018-09-29T03:36:16.114Z,34.3
2018-09-29T03:41:12.306Z,34.3
2018-09-29T03:46:08.247Z,34.5
2018-09-29T03:51:04.378Z,34.1
2018-09-29T03:56:00.737Z,33.9
2018-09-29T04:00:59.435Z,34.2
2018-09-29T04:05:55.451Z,34.4
2018-09-29T04:10:51.509Z,34.3
2018-09-29T04:15:47.296Z,33.8
2018-09-29T04:20:43.573Z,33.8
2018-09-29T04:25:39.905Z,33.8
2018-09-29T04:30:35.885Z,33.8
2018-09-29T04:35:31.975Z,33.7
2018-09-29T04:40:28.197Z,33.9
2018-09-29T04:45:24.507Z,33.9
2018-09-29T04:50:21.224Z,34.1
2018-09-29T04:55:17.484Z,34.4
2018-09-29T05:00:13.629Z,34.7
2018-09-29T05:05:09.701Z,35.1
2018-09-29T05:10:06.626Z,35.5
2018-09-29T05:15:03.516Z,35.4
2018-09-29T05:20:00.006Z,35.3
2018-09-29T05:24:56.347Z,35.5
2018-09-29T05:29:52.867Z,35.1
2018-09-29T05:34:49.077Z,34.9
2018-09-29T05:39:45.468Z,34.8
2018-09-29T05:44:41.794Z,34.7
2018-09-29T05:49:38.295Z,34.7
2018-09-29T05:54:34.851Z,34.1
2018-09-29T05:59:31.484Z,34
2018-09-29T06:04:27.210Z,33.7
2018-09-29T06:09:23.417Z,33.7
2018-09-29T06:14:20.614Z,33.8
2018-09-29T06:19:16.742Z,33.9
2018-09-29T06:24:12.906Z,33.9
2018-09-29T06:29:08.679Z,33.8
2018-09-29T06:34:04.925Z,33.8
2018-09-29T06:39:00.637Z,33.7
2018-09-29T06:43:56.798Z,33.6
2018-09-29T06:48:53.227Z,33.9
2018-09-29T06:53:49.196Z,33.8
2018-09-29T06:58:45.833Z,33.5
2018-09-29T07:03:42.333Z,33.4
2018-09-29T07:08:38.577Z,33.6
2018-09-29T07:13:34.666Z,32.8
2018-09-29T07:18:30.896Z,32.4
2018-09-29T07:23:27.067Z,32.6
2018-09-29T07:28:23.049Z,32.5
2018-09-29T07:33:19.647Z,32.3
2018-09-29T07:38:15.774Z,33
2018-09-29T07:43:11.867Z,33.2
2018-09-29T07:48:07.929Z,33.4
2018-09-29T07:53:05.032Z,33.2
2018-09-29T07:58:01.694Z,33.4
2018-09-29T08:02:57.566Z,33.4
2018-09-29T08:07:53.493Z,33.3
2018-09-29T08:12:49.665Z,33.4
2018-09-29T08:17:46.144Z,33.1
2018-09-29T08:22:42.518Z,33.4
2018-09-29T08:27:38.774Z,33.4
2018-09-29T08:32:35.034Z,33.3
2018-09-29T08:37:31.752Z,33.3
2018-09-29T08:42:27.936Z,33.1
2018-09-29T08:47:24.163Z,32.8
2018-09-29T08:52:20.128Z,32.8
2018-09-29T08:57:16.749Z,32.8
2018-09-29T09:02:12.723Z,32.7
2018-09-29T09:07:09.205Z,32.8
2018-09-29T09:12:05.461Z,32.6
2018-09-29T09:17:01.965Z,32.7
2018-09-29T09:21:58.288Z,32.5
2018-09-29T09:26:54.864Z,32.3
2018-09-29T09:31:51.201Z,32.4
2018-09-29T09:36:47.733Z,32.2
2018-09-29T09:41:44.245Z,32.5
2018-09-29T09:46:40.525Z,32.3
2018-09-29T09:51:37.029Z,32.2
2018-09-29T09:56:33.368Z,32
2018-09-29T10:01:29.631Z,31.9
2018-09-29T10:06:26.306Z,31.9
2018-09-29T10:11:22.706Z,31.5
2018-09-29T10:16:19.549Z,31.2
2018-09-29T10:21:15.820Z,30.7
2018-09-29T10:26:12.582Z,30.1
2018-09-29T10:31:09.172Z,30.2
2018-09-29T10:36:05.706Z,30
2018-09-29T10:41:02.009Z,30
2018-09-29T10:45:58.493Z,29.7
2018-09-29T10:50:55.252Z,29.3
2018-09-29T10:55:51.712Z,29.2
2018-09-29T11:00:48.439Z,28.6
2018-09-29T11:05:45.157Z,28.6
2018-09-29T11:10:40.991Z,28.4
2018-09-29T11:15:37.202Z,28.3
2018-09-29T11:20:32.957Z,28.5
2018-09-29T11:25:29.512Z,28.5
2018-09-29T11:30:25.947Z,28.4
2018-09-29T11:35:22.362Z,28
2018-09-29T11:40:19.246Z,27.4
2018-09-29T11:45:15.658Z,27.4
2018-09-29T11:50:12.379Z,26.8
2018-09-29T11:55:08.953Z,26.5
2018-09-29T12:00:05.469Z,26.1
2018-09-29T12:05:01.747Z,26.5
2018-09-29T12:09:58.368Z,26.3
2018-09-29T12:14:55.406Z,25.7
2018-09-29T12:19:51.793Z,25.6
2018-09-29T12:24:47.953Z,25.6
2018-09-29T12:29:44.300Z,25.6
2018-09-29T12:34:40.632Z,25
2018-09-29T12:39:36.871Z,25
2018-09-29T12:44:32.986Z,25.1
2018-09-29T12:49:29.447Z,25
2018-09-29T12:54:25.679Z,24.8
2018-09-29T12:59:22.733Z,24.8
2018-09-29T13:04:18.977Z,24.7
2018-09-29T13:09:15.286Z,24.2
2018-09-29T13:14:11.651Z,23.2
2018-09-29T13:19:08.115Z,22.5
2018-09-29T13:24:04.332Z,22.3
2018-09-29T13:29:00.527Z,22.4
2018-09-29T13:33:56.781Z,22.5
2018-09-29T13:38:53.165Z,22.8
2018-09-29T13:43:49.562Z,22.6
2018-09-29T13:48:45.867Z,22.5
2018-09-29T13:53:42.492Z,23
2018-09-29T13:58:39.428Z,23.3
2018-09-29T14:03:36.200Z,23.4
2018-09-29T14:08:32.415Z,23.4
2018-09-29T14:13:28.495Z,23.7
2018-09-29T14:18:24.589Z,24.2
2018-09-29T14:23:21.994Z,24.3
2018-09-29T14:28:17.951Z,24.4
2018-09-29T14:33:14.214Z,24.6
2018-09-29T14:38:10.532Z,24.7
2018-09-29T14:43:06.867Z,24.8
2018-09-29T14:48:03.213Z,25
2018-09-29T14:52:59.585Z,24.9
2018-09-29T14:57:56.128Z,24.9
2018-09-29T15:02:52.345Z,24.9
2018-09-29T15:07:48.191Z,24.9
2018-09-29T15:12:44.540Z,24.9
2018-09-29T15:17:40.670Z,25
2018-09-29T15:22:37.022Z,25.1
2018-09-29T15:27:33.233Z,25
2018-09-29T15:32:29.474Z,25.1
2018-09-29T15:37:25.774Z,25.1
2018-09-29T15:42:22.650Z,25.5
2018-09-29T15:47:18.822Z,25.7
2018-09-29T15:52:15.425Z,26
2018-09-29T15:57:11.435Z,26.1
2018-09-29T16:02:07.616Z,26.4
2018-09-29T16:07:03.749Z,26.2
2018-09-29T16:12:00.453Z,27.2
2018-09-29T16:16:56.602Z,28.8
2018-09-29T16:21:52.945Z,29.2
2018-09-29T16:26:49.099Z,29.8
2018-09-29T16:31:45.641Z,30.2
2018-09-29T16:36:41.770Z,30.6
2018-09-29T16:41:37.887Z,31.1
2018-09-29T16:46:34.354Z,31.3
2018-09-29T16:51:30.760Z,31.4
2018-09-29T16:56:26.835Z,32.1
2018-09-29T17:01:23.135Z,31.9
2018-09-29T17:06:19.503Z,32.1
2018-09-29T17:11:15.638Z,32.3
2018-09-29T17:16:11.815Z,32.6
2018-09-29T17:21:08.127Z,32.7
2018-09-29T17:26:04.378Z,33.2
2018-09-29T17:31:00.561Z,33
2018-09-29T17:35:56.710Z,33.2
2018-09-29T17:40:52.700Z,33.5
2018-09-29T17:45:48.840Z,33.8
2018-09-29T17:50:44.887Z,34.2
2018-09-29T17:55:41.721Z,34.9
2018-09-29T18:00:38.418Z,34.8
2018-09-29T18:05:34.631Z,35
2018-09-29T18:10:30.688Z,35
2018-09-29T18:20:23.131Z,35.7
2018-09-29T18:25:19.261Z,35.7
2018-09-29T18:30:15.593Z,35.8
2018-09-29T18:35:11.733Z,36.3
2018-09-29T18:40:07.928Z,36.5
2018-09-29T18:45:04.051Z,36.7
2018-09-29T18:50:00.513Z,37.4
2018-09-29T18:54:56.517Z,37.6
2018-09-29T18:59:52.292Z,38.2
2018-09-29T19:04:48.640Z,37.6
2018-09-29T19:09:44.235Z,37.8
2018-09-29T19:14:40.936Z,38.1
2018-09-29T19:19:37.161Z,38.3
2018-09-29T19:24:33.103Z,38.1
2018-09-29T19:29:29.201Z,38.7
2018-09-29T19:34:25.549Z,38.4
2018-09-29T19:39:21.906Z,38.7
2018-09-29T19:44:18.833Z,38.7
2018-09-29T19:49:15.306Z,38.6
2018-09-29T19:54:11.550Z,38.8
2018-09-29T19:59:08.564Z,38.9
2018-09-29T20:04:04.954Z,39.1
2018-09-29T20:09:01.253Z,39.3
2018-09-29T20:13:57.609Z,39.5
2018-09-29T20:18:53.697Z,39.4
2018-09-29T20:23:49.803Z,39.9
2018-09-29T20:28:46.294Z,40
2018-09-29T20:33:42.292Z,39.9
2018-09-29T20:38:38.320Z,40.1
2018-09-29T20:43:34.640Z,40.6
2018-09-29T20:48:31.029Z,40.6
2018-09-29T20:53:27.349Z,41.1
2018-09-29T20:58:23.973Z,41.2
2018-09-29T21:03:20.055Z,41.1
2018-09-29T21:08:16.489Z,41.3
2018-09-29T21:13:12.231Z,41.3
2018-09-29T21:18:08.456Z,41.8
2018-09-29T21:23:05.101Z,42.2
2018-09-29T21:28:00.934Z,42.4
2018-09-29T21:32:57.279Z,42.1
2018-09-29T21:37:53.780Z,42.1
2018-09-29T21:42:49.930Z,42.1
2018-09-29T21:47:46.496Z,42.2
2018-09-29T21:52:42.513Z,42.4
2018-09-29T21:57:38.863Z,42.9
2018-09-29T22:02:35.315Z,43.4
2018-09-29T22:07:31.447Z,42.8
2018-09-29T22:12:27.609Z,43
2018-09-29T22:17:24.616Z,43.1
2018-09-29T22:22:20.700Z,43.5
2018-09-29T22:27:16.548Z,43.6
2018-09-29T22:32:12.567Z,43.3
2018-09-29T22:37:08.778Z,43.8
2018-09-29T22:42:04.915Z,43.7
2018-09-29T22:47:01.154Z,44.1
2018-09-29T22:51:57.479Z,43.9
2018-09-29T22:56:53.966Z,43.9
2018-09-29T23:01:50.224Z,44.1
2018-09-29T23:06:46.806Z,44
2018-09-29T23:11:42.863Z,44.3
2018-09-29T23:16:39.113Z,44.3
2018-09-29T23:21:35.408Z,44.4
2018-09-29T23:26:32.011Z,45
2018-09-29T23:31:28.244Z,44.5
2018-09-29T23:36:24.450Z,44.8
2018-09-29T23:41:20.031Z,45
2018-09-29T23:46:16.230Z,45.2
2018-09-29T23:51:12.413Z,45.4
2018-09-29T23:56:08.865Z,45.3
